createdAt,value
2023-05-01T00:01:16.895Z,11.50
2023-05-01T00:03:46.661Z,11.40
2023-05-01T00:06:16.256Z,11.40
2023-05-01T00:08:43.226Z,11.30
2023-05-01T00:11:12.467Z,11.20
2023-05-01T00:13:41.526Z,11.10
2023-05-01T00:16:09.785Z,11.10
2023-05-01T00:18:36.886Z,11.10
2023-05-01T00:21:03.949Z,11.10
2023-05-01T00:23:33.391Z,11.10
2023-05-01T00:26:00.449Z,11.00
2023-05-01T00:28:29.736Z,11.00
2023-05-01T00:30:57.858Z,11.00
2023-05-01T00:33:24.794Z,11.00
2023-05-01T00:35:54.077Z,11.00
2023-05-01T00:38:21.032Z,11.00
2023-05-01T00:40:48.209Z,11.00
2023-05-01T00:43:15.194Z,10.90
2023-05-01T00:45:46.713Z,10.90
2023-05-01T00:48:13.633Z,10.90
2023-05-01T00:50:40.584Z,10.90
2023-05-01T00:53:07.596Z,10.90
2023-05-01T00:55:35.847Z,10.90
2023-05-01T00:58:02.861Z,10.80
2023-05-01T01:00:32.718Z,10.80
2023-05-01T01:03:02.557Z,10.70
2023-05-01T01:05:32.755Z,10.70
2023-05-01T01:08:03.585Z,10.70
2023-05-01T01:11:03.306Z,10.60
2023-05-01T01:13:41.514Z,10.60
2023-05-01T01:16:12.559Z,10.60
2023-05-01T01:18:58.557Z,10.70
2023-05-01T01:21:32.328Z,10.70
2023-05-01T01:24:30.491Z,10.70
2023-05-01T01:27:16.253Z,10.80
2023-05-01T01:29:58.683Z,10.90
2023-05-01T01:32:47.173Z,10.90
2023-05-01T01:35:20.844Z,10.90
2023-05-01T01:37:57.341Z,10.90
2023-05-01T01:40:26.278Z,10.90
2023-05-01T01:43:07.800Z,10.90
2023-05-01T01:45:43.287Z,10.90
2023-05-01T01:48:13.355Z,10.90
2023-05-01T01:50:43.302Z,10.90
2023-05-01T01:53:10.234Z,10.90
2023-05-01T01:55:37.435Z,10.90
2023-05-01T01:58:06.961Z,10.80
2023-05-01T02:00:34.528Z,10.80
2023-05-01T02:03:04.108Z,10.80
2023-05-01T02:05:31.340Z,10.70
2023-05-01T02:08:01.287Z,10.70
2023-05-01T02:10:28.535Z,10.70
2023-05-01T02:12:57.578Z,10.60
2023-05-01T02:15:24.634Z,10.60
2023-05-01T02:17:53.886Z,10.60
2023-05-01T02:20:22.106Z,10.50
2023-05-01T02:22:51.380Z,10.50
2023-05-01T02:25:18.455Z,10.50
2023-05-01T02:27:50.620Z,10.50
2023-05-01T02:30:20.821Z,10.40
2023-05-01T02:32:50.138Z,10.40
2023-05-01T02:35:17.910Z,10.30
2023-05-01T02:37:45.240Z,10.20
2023-05-01T02:40:17.245Z,10.10
2023-05-01T02:42:44.910Z,10.20
2023-05-01T02:45:22.696Z,10.20
2023-05-01T02:47:52.009Z,10.20
2023-05-01T02:50:18.971Z,10.20
2023-05-01T02:52:45.981Z,10.10
2023-05-01T02:55:40.606Z,10.00
2023-05-01T02:58:14.892Z,9.90
2023-05-01T03:00:42.304Z,9.80
2023-05-01T03:03:12.151Z,9.70
2023-05-01T03:05:39.648Z,9.60
2023-05-01T03:08:11.655Z,9.50
2023-05-01T03:10:44.438Z,9.40
2023-05-01T03:13:11.793Z,9.40
2023-05-01T03:15:41.363Z,9.60
2023-05-01T03:18:08.422Z,9.70
2023-05-01T03:20:35.395Z,9.70
2023-05-01T03:23:04.038Z,9.80
2023-05-01T03:25:32.056Z,9.80
2023-05-01T03:27:59.036Z,9.80
2023-05-01T03:30:26.604Z,9.70
2023-05-01T03:32:55.263Z,9.70
2023-05-01T03:35:28.534Z,9.70
2023-05-01T03:37:58.489Z,9.70
2023-05-01T03:40:48.409Z,9.70
2023-05-01T03:43:36.269Z,9.80
2023-05-01T03:46:08.661Z,9.80
2023-05-01T03:48:36.056Z,9.80
2023-05-01T03:51:03.255Z,10.00
2023-05-01T03:53:33.084Z,9.90
2023-05-01T03:56:05.511Z,9.80
2023-05-01T03:58:32.550Z,9.80
2023-05-01T04:01:01.057Z,9.80
2023-05-01T04:03:32.786Z,9.70
2023-05-01T04:06:04.628Z,9.70
2023-05-01T04:08:31.631Z,9.70
2023-05-01T04:10:58.649Z,9.70
2023-05-01T04:13:25.683Z,9.80
2023-05-01T04:15:55.843Z,10.00
2023-05-01T04:18:23.586Z,10.10
2023-05-01T04:20:55.720Z,10.20
2023-05-01T04:23:25.159Z,10.30
2023-05-01T04:25:55.030Z,10.30
2023-05-01T04:28:21.984Z,10.40
2023-05-01T04:30:48.939Z,10.50
2023-05-01T04:33:18.377Z,10.50
2023-05-01T04:35:45.360Z,10.50
2023-05-01T04:38:12.689Z,10.60
2023-05-01T04:40:42.713Z,10.60
2023-05-01T04:43:10.887Z,10.70
2023-05-01T04:45:39.019Z,10.80
2023-05-01T04:48:09.157Z,10.80
2023-05-01T04:50:38.680Z,10.80
2023-05-01T04:53:08.880Z,10.80
2023-05-01T04:55:36.944Z,10.80
2023-05-01T04:58:09.528Z,10.80
2023-05-01T05:00:38.786Z,10.80
2023-05-01T05:03:10.920Z,10.80
2023-05-01T05:05:38.017Z,10.80
2023-05-01T05:08:09.423Z,10.80
2023-05-01T05:10:39.651Z,10.90
2023-05-01T05:13:35.797Z,10.90
2023-05-01T05:16:12.363Z,10.90
2023-05-01T05:18:39.772Z,10.90
2023-05-01T05:21:10.489Z,10.90
2023-05-01T05:23:44.338Z,10.90
2023-05-01T05:26:11.940Z,10.90
2023-05-01T05:28:39.339Z,10.90
2023-05-01T05:31:07.363Z,11.00
2023-05-01T05:33:37.100Z,11.00
2023-05-01T05:36:08.018Z,11.00
2023-05-01T05:38:40.724Z,11.00
2023-05-01T05:41:11.967Z,11.00
2023-05-01T05:43:42.387Z,11.00
2023-05-01T05:46:10.164Z,11.00
2023-05-01T05:48:40.891Z,11.00
2023-05-01T05:51:08.229Z,11.00
2023-05-01T05:53:35.134Z,11.00
2023-05-01T05:56:04.858Z,11.00
2023-05-01T05:58:32.375Z,11.00
2023-05-01T06:00:59.575Z,11.10
2023-05-01T06:03:27.425Z,11.10
2023-05-01T06:06:04.996Z,11.10
2023-05-01T06:08:32.602Z,11.20
2023-05-01T06:10:59.561Z,11.20
2023-05-01T06:13:27.250Z,11.30
2023-05-01T06:15:54.304Z,11.30
2023-05-01T06:18:23.804Z,11.30
2023-05-01T06:20:53.251Z,11.30
2023-05-01T06:23:20.432Z,11.30
2023-05-01T06:26:00.372Z,11.20
2023-05-01T06:28:27.482Z,11.10
2023-05-01T06:30:57.910Z,11.10
2023-05-01T06:33:28.829Z,11.10
2023-05-01T06:36:07.559Z,11.10
2023-05-01T06:38:39.150Z,11.20
2023-05-01T06:41:06.341Z,11.10
2023-05-01T06:43:40.500Z,11.10
2023-05-01T06:46:07.414Z,11.20
2023-05-01T06:48:34.551Z,11.30
2023-05-01T06:51:05.273Z,11.40
2023-05-01T06:53:32.416Z,11.50
2023-05-01T06:56:01.457Z,11.50
2023-05-01T06:58:28.389Z,11.50
2023-05-01T07:00:55.385Z,11.50
2023-05-01T07:03:23.188Z,11.60
2023-05-01T07:05:50.191Z,11.70
2023-05-01T07:08:19.747Z,11.70
2023-05-01T07:10:50.005Z,11.70
2023-05-01T07:13:17.328Z,11.80
2023-05-01T07:15:44.260Z,11.90
2023-05-01T07:18:17.138Z,11.90
2023-05-01T07:20:46.360Z,12.00
2023-05-01T07:23:15.984Z,12.00
2023-05-01T07:25:45.454Z,12.10
2023-05-01T07:28:12.471Z,12.10
2023-05-01T07:30:39.685Z,12.20
2023-05-01T07:33:12.100Z,12.10
2023-05-01T07:35:39.038Z,12.20
2023-05-01T07:38:08.843Z,12.30
2023-05-01T07:40:36.711Z,12.30
2023-05-01T07:43:04.305Z,12.50
2023-05-01T07:45:33.611Z,12.50
2023-05-01T07:48:08.378Z,12.50
2023-05-01T07:50:35.339Z,12.50
2023-05-01T07:53:04.791Z,12.50
2023-05-01T07:55:33.962Z,12.30
2023-05-01T07:58:03.915Z,12.30
2023-05-01T08:00:31.375Z,12.30
2023-05-01T08:02:58.407Z,12.30
2023-05-01T08:05:25.357Z,12.40
2023-05-01T08:07:54.736Z,12.40
2023-05-01T08:10:23.883Z,12.50
2023-05-01T08:12:53.348Z,12.50
2023-05-01T08:15:22.417Z,12.30
2023-05-01T08:17:51.193Z,12.40
2023-05-01T08:20:22.803Z,12.40
2023-05-01T08:22:49.706Z,12.50
2023-05-01T08:25:16.785Z,12.50
2023-05-01T08:27:43.695Z,12.50
2023-05-01T08:30:13.050Z,12.50
2023-05-01T08:32:40.119Z,12.50
2023-05-01T08:35:07.312Z,12.50
2023-05-01T08:37:35.282Z,12.70
2023-05-01T08:40:08.300Z,12.50
2023-05-01T08:42:40.460Z,12.50
2023-05-01T08:45:10.887Z,12.50
2023-05-01T08:47:41.287Z,12.50
2023-05-01T08:50:14.038Z,12.50
2023-05-01T08:52:46.089Z,12.50
2023-05-01T08:55:14.419Z,12.70
2023-05-01T08:57:48.142Z,12.90
2023-05-01T09:00:19.572Z,13.10
2023-05-01T09:02:48.484Z,13.30
2023-05-01T09:05:21.249Z,13.50
2023-05-01T09:07:50.769Z,13.70
2023-05-01T09:10:18.950Z,13.60
2023-05-01T09:12:49.169Z,13.70
2023-05-01T09:15:16.183Z,13.90
2023-05-01T09:17:43.531Z,14.20
2023-05-01T09:20:14.083Z,14.30
2023-05-01T09:22:46.159Z,14.40
2023-05-01T09:25:15.578Z,14.60
2023-05-01T09:27:45.569Z,14.70
2023-05-01T09:30:38.874Z,14.70
2023-05-01T09:33:09.391Z,14.70
2023-05-01T09:35:57.180Z,14.60
2023-05-01T09:38:27.114Z,14.40
2023-05-01T09:40:56.899Z,14.20
2023-05-01T09:43:27.836Z,14.30
2023-05-01T09:46:05.485Z,14.60
2023-05-01T09:48:35.729Z,14.90
2023-05-01T09:51:29.889Z,15.20
2023-05-01T09:53:58.261Z,15.50
2023-05-01T09:56:28.974Z,15.50
2023-05-01T09:58:57.253Z,15.40
2023-05-01T10:01:40.106Z,15.40
2023-05-01T10:04:07.684Z,15.40
2023-05-01T10:06:34.772Z,15.50
2023-05-01T10:09:04.389Z,15.40
2023-05-01T10:11:53.788Z,15.10
2023-05-01T10:14:24.328Z,14.70
2023-05-01T10:16:53.678Z,14.50
2023-05-01T10:19:21.302Z,14.40
2023-05-01T10:21:52.891Z,14.40
2023-05-01T10:24:20.479Z,14.40
2023-05-01T10:26:49.918Z,14.50
2023-05-01T10:29:21.096Z,14.70
2023-05-01T10:31:50.481Z,15.00
2023-05-01T10:34:20.260Z,15.20
2023-05-01T10:36:50.166Z,15.40
2023-05-01T10:39:36.282Z,15.30
2023-05-01T10:42:14.414Z,15.30
2023-05-01T10:44:44.015Z,15.40
2023-05-01T10:47:35.333Z,15.50
2023-05-01T10:50:07.155Z,15.40
2023-05-01T10:53:09.862Z,15.60
2023-05-01T10:55:42.626Z,15.60
2023-05-01T10:58:10.342Z,15.70
2023-05-01T11:00:37.359Z,15.90
2023-05-01T11:03:22.688Z,16.00
2023-05-01T11:06:04.855Z,16.10
2023-05-01T11:08:32.406Z,16.40
2023-05-01T11:11:24.040Z,16.40
2023-05-01T11:14:02.538Z,16.40
2023-05-01T11:16:42.019Z,16.50
2023-05-01T11:19:23.529Z,16.50
2023-05-01T11:21:55.804Z,16.60
2023-05-01T11:24:33.147Z,16.60
2023-05-01T11:27:00.341Z,16.50
2023-05-01T11:29:33.590Z,16.70
2023-05-01T11:32:01.136Z,16.80
2023-05-01T11:34:28.281Z,16.90
2023-05-01T11:36:59.820Z,17.00
2023-05-01T11:39:26.873Z,17.20
2023-05-01T11:42:06.962Z,17.20
2023-05-01T11:44:33.879Z,17.30
2023-05-01T11:47:02.952Z,17.30
2023-05-01T11:49:29.897Z,17.20
2023-05-01T11:51:58.177Z,17.20
2023-05-01T11:54:28.182Z,17.20
2023-05-01T11:57:00.122Z,17.20
2023-05-01T11:59:27.315Z,17.00
2023-05-01T12:01:54.398Z,17.00
2023-05-01T12:04:28.816Z,17.00
2023-05-01T12:06:58.468Z,17.00
2023-05-01T12:09:27.949Z,16.90
2023-05-01T12:11:54.921Z,17.10
2023-05-01T12:14:24.629Z,17.20
2023-05-01T12:16:51.692Z,17.40
2023-05-01T12:19:19.742Z,17.50
2023-05-01T12:22:04.908Z,17.40
2023-05-01T12:24:33.933Z,17.50
2023-05-01T12:27:01.292Z,17.50
2023-05-01T12:29:44.757Z,17.50
2023-05-01T12:32:18.151Z,17.80
2023-05-01T12:34:45.068Z,17.80
2023-05-01T12:37:11.965Z,18.00
2023-05-01T12:39:44.882Z,18.00
2023-05-01T12:42:15.029Z,17.90
2023-05-01T12:44:44.415Z,17.80
2023-05-01T12:47:11.402Z,18.00
2023-05-01T12:49:38.376Z,18.00
2023-05-01T12:52:06.369Z,18.00
2023-05-01T12:54:34.639Z,18.00
2023-05-01T12:57:18.139Z,17.90
2023-05-01T12:59:49.558Z,17.90
2023-05-01T13:02:20.182Z,17.80
2023-05-01T13:04:49.642Z,17.70
2023-05-01T13:07:17.851Z,17.40
2023-05-01T13:09:53.321Z,17.20
2023-05-01T13:12:20.231Z,17.20
2023-05-01T13:14:47.665Z,17.20
2023-05-01T13:17:31.127Z,17.40
2023-05-01T13:20:06.930Z,17.50
2023-05-01T13:22:37.369Z,17.60
2023-05-01T13:25:05.700Z,17.80
2023-05-01T13:27:32.683Z,17.70
2023-05-01T13:30:02.337Z,17.90
2023-05-01T13:32:29.635Z,18.10
2023-05-01T13:35:03.578Z,18.10
2023-05-01T13:37:30.598Z,18.30
2023-05-01T13:40:00.096Z,18.50
2023-05-01T13:42:29.442Z,18.50
2023-05-01T13:44:59.353Z,18.20
2023-05-01T13:47:28.634Z,17.90
2023-05-01T13:50:00.611Z,17.80
2023-05-01T13:52:32.552Z,17.80
2023-05-01T13:54:59.779Z,18.10
2023-05-01T13:57:27.138Z,18.20
2023-05-01T13:59:56.349Z,18.30
2023-05-01T14:02:29.053Z,18.40
2023-05-01T14:04:58.286Z,18.50
2023-05-01T14:07:26.737Z,18.70
2023-05-01T14:09:55.160Z,18.70
2023-05-01T14:12:27.859Z,18.60
2023-05-01T14:14:54.793Z,18.50
2023-05-01T14:17:35.204Z,18.30
2023-05-01T14:20:05.585Z,18.30
2023-05-01T14:22:43.920Z,18.30
2023-05-01T14:25:24.412Z,18.20
2023-05-01T14:27:52.212Z,18.10
2023-05-01T14:30:30.061Z,18.10
2023-05-01T14:32:57.071Z,18.30
2023-05-01T14:35:24.392Z,18.40
2023-05-01T14:37:51.502Z,18.40
2023-05-01T14:40:22.501Z,18.40
2023-05-01T14:42:49.493Z,18.50
2023-05-01T14:45:17.272Z,18.50
2023-05-01T14:47:46.106Z,18.40
2023-05-01T14:50:19.438Z,18.40
2023-05-01T14:52:56.326Z,18.50
2023-05-01T14:55:34.890Z,18.60
2023-05-01T14:58:02.088Z,18.60
2023-05-01T15:00:29.080Z,18.50
2023-05-01T15:02:59.412Z,18.50
2023-05-01T15:05:29.148Z,18.20
2023-05-01T15:08:00.679Z,17.90
2023-05-01T15:10:28.898Z,17.60
2023-05-01T15:12:55.876Z,17.50
2023-05-01T15:15:22.890Z,17.20
2023-05-01T15:17:54.350Z,17.10
2023-05-01T15:20:23.780Z,17.00
2023-05-01T15:22:50.811Z,17.00
2023-05-01T15:25:17.890Z,17.20
2023-05-01T15:27:47.491Z,17.20
2023-05-01T15:30:15.218Z,17.30
2023-05-01T15:32:49.340Z,17.50
2023-05-01T15:35:17.375Z,17.50
2023-05-01T15:37:44.386Z,17.50
2023-05-01T15:40:14.309Z,17.60
2023-05-01T15:42:41.277Z,17.80
2023-05-01T15:45:11.352Z,17.70
2023-05-01T15:47:38.452Z,17.50
2023-05-01T15:50:09.443Z,17.50
2023-05-01T15:52:36.389Z,17.30
2023-05-01T15:55:06.372Z,17.20
2023-05-01T15:57:35.898Z,17.20
2023-05-01T16:00:03.354Z,17.40
2023-05-01T16:02:32.743Z,17.40
2023-05-01T16:05:02.553Z,17.50
2023-05-01T16:07:34.532Z,17.60
2023-05-01T16:10:01.820Z,17.80
2023-05-01T16:12:31.200Z,17.90
2023-05-01T16:15:00.910Z,17.90
2023-05-01T16:17:30.207Z,17.90
2023-05-01T16:19:57.487Z,17.80
2023-05-01T16:22:24.603Z,17.80
2023-05-01T16:24:51.605Z,17.80
2023-05-01T16:27:18.624Z,17.80
2023-05-01T16:29:45.616Z,17.80
2023-05-01T16:32:15.388Z,17.70
2023-05-01T16:34:45.490Z,17.70
2023-05-01T16:37:16.315Z,17.60
2023-05-01T16:39:47.918Z,17.50
2023-05-01T16:42:14.849Z,17.50
2023-05-01T16:44:44.777Z,17.30
2023-05-01T16:47:12.059Z,17.20
2023-05-01T16:49:40.881Z,17.10
2023-05-01T16:52:14.206Z,17.10
2023-05-01T16:54:41.176Z,17.20
2023-05-01T16:57:08.300Z,17.20
2023-05-01T16:59:37.798Z,17.00
2023-05-01T17:02:05.775Z,17.00
2023-05-01T17:04:33.553Z,16.90
2023-05-01T17:07:00.710Z,16.90
2023-05-01T17:09:27.787Z,16.90
2023-05-01T17:11:59.096Z,17.00
2023-05-01T17:14:28.724Z,17.00
2023-05-01T17:16:58.847Z,17.00
2023-05-01T17:19:28.343Z,17.20
2023-05-01T17:21:58.151Z,17.40
2023-05-01T17:24:26.967Z,17.50
2023-05-01T17:26:54.002Z,17.50
2023-05-01T17:29:20.907Z,17.80
2023-05-01T17:31:48.065Z,18.00
2023-05-01T17:34:17.119Z,18.00
2023-05-01T17:36:44.080Z,17.80
2023-05-01T17:39:11.139Z,17.80
2023-05-01T17:41:42.997Z,17.80
2023-05-01T17:44:12.400Z,18.00
2023-05-01T17:46:41.812Z,18.20
2023-05-01T17:49:08.799Z,18.30
2023-05-01T17:51:37.972Z,18.10
2023-05-01T17:54:05.854Z,17.80
2023-05-01T17:56:35.229Z,17.50
2023-05-01T17:59:04.822Z,17.40
2023-05-01T18:01:31.836Z,17.20
2023-05-01T18:04:03.629Z,17.10
2023-05-01T18:06:31.907Z,17.20
2023-05-01T18:08:59.148Z,17.40
2023-05-01T18:11:26.261Z,17.30
2023-05-01T18:13:55.406Z,17.20
2023-05-01T18:16:23.479Z,17.00
2023-05-01T18:18:53.180Z,17.00
2023-05-01T18:21:22.530Z,17.00
2023-05-01T18:23:49.723Z,17.10
2023-05-01T18:26:19.360Z,17.20
2023-05-01T18:28:46.346Z,17.20
2023-05-01T18:31:14.541Z,17.20
2023-05-01T18:33:44.062Z,17.10
2023-05-01T18:36:11.040Z,17.00
2023-05-01T18:38:37.990Z,16.90
2023-05-01T18:41:07.459Z,16.80
2023-05-01T18:43:34.431Z,16.70
2023-05-01T18:46:01.396Z,16.50
2023-05-01T18:48:28.383Z,16.40
2023-05-01T18:51:07.667Z,16.20
2023-05-01T18:53:36.074Z,16.00
2023-05-01T18:56:03.093Z,15.90
2023-05-01T18:58:30.292Z,15.80
2023-05-01T19:00:57.240Z,15.60
2023-05-01T19:03:26.652Z,15.70
2023-05-01T19:05:55.903Z,15.60
2023-05-01T19:08:25.546Z,15.50
2023-05-01T19:10:53.096Z,15.40
2023-05-01T19:13:19.986Z,15.40
2023-05-01T19:15:49.481Z,15.30
2023-05-01T19:18:16.946Z,15.20
2023-05-01T19:20:45.869Z,15.00
2023-05-01T19:23:15.326Z,14.80
2023-05-01T19:25:42.345Z,14.70
2023-05-01T19:28:11.624Z,14.50
2023-05-01T19:30:38.730Z,14.40
2023-05-01T19:33:08.429Z,14.40
2023-05-01T19:35:35.585Z,14.40
2023-05-01T19:38:02.506Z,14.40
2023-05-01T19:40:29.545Z,14.40
2023-05-01T19:42:58.890Z,14.40
2023-05-01T19:45:30.404Z,14.40
2023-05-01T19:48:00.013Z,14.40
2023-05-01T19:50:27.207Z,14.40
2023-05-01T19:52:54.173Z,14.40
2023-05-01T19:55:21.394Z,14.30
2023-05-01T19:57:51.964Z,14.20
2023-05-01T20:00:19.014Z,14.10
2023-05-01T20:02:46.957Z,13.90
2023-05-01T20:05:14.151Z,13.80
2023-05-01T20:07:41.362Z,13.70
2023-05-01T20:10:09.729Z,13.50
2023-05-01T20:12:37.116Z,13.50
2023-05-01T20:15:09.167Z,13.40
2023-05-01T20:17:41.566Z,13.30
2023-05-01T20:20:10.228Z,13.30
2023-05-01T20:22:39.277Z,13.30
2023-05-01T20:25:09.716Z,13.10
2023-05-01T20:27:37.904Z,13.10
2023-05-01T20:30:11.285Z,13.10
2023-05-01T20:32:44.277Z,13.00
2023-05-01T20:35:16.304Z,12.90
2023-05-01T20:37:45.663Z,12.80
2023-05-01T20:40:16.502Z,12.70
2023-05-01T20:42:43.435Z,12.60
2023-05-01T20:45:10.429Z,12.70
2023-05-01T20:47:39.673Z,12.70
2023-05-01T20:50:07.567Z,12.70
2023-05-01T20:52:35.339Z,12.80
2023-05-01T20:55:04.537Z,12.80
2023-05-01T20:57:36.762Z,12.80
2023-05-01T21:00:06.652Z,12.80
2023-05-01T21:02:35.997Z,12.80
2023-05-01T21:05:03.179Z,12.80
2023-05-01T21:07:30.397Z,12.90
2023-05-01T21:10:00.082Z,12.90
2023-05-01T21:12:28.750Z,13.00
2023-05-01T21:14:58.396Z,13.10
2023-05-01T21:17:26.345Z,13.10
2023-05-01T21:19:53.333Z,13.20
2023-05-01T21:22:23.405Z,13.30
2023-05-01T21:24:55.637Z,13.30
2023-05-01T21:27:24.211Z,13.30
2023-05-01T21:29:59.259Z,13.30
2023-05-01T21:32:33.960Z,13.40
2023-05-01T21:35:01.209Z,13.50
2023-05-01T21:37:29.249Z,13.50
2023-05-01T21:40:01.254Z,13.50
2023-05-01T21:42:37.029Z,13.50
2023-05-01T21:45:08.079Z,13.50
2023-05-01T21:47:42.049Z,13.60
2023-05-01T21:50:16.074Z,13.60
2023-05-01T21:52:46.606Z,13.60
2023-05-01T21:55:21.937Z,13.50
2023-05-01T21:57:51.950Z,13.40
2023-05-01T22:00:21.417Z,13.30
2023-05-01T22:02:53.713Z,13.20
2023-05-01T22:05:22.580Z,13.10
2023-05-01T22:07:51.411Z,12.90
2023-05-01T22:10:23.383Z,12.80
2023-05-01T22:12:50.366Z,12.60
2023-05-01T22:15:22.034Z,12.50
2023-05-01T22:17:49.029Z,12.40
2023-05-01T22:20:18.796Z,12.30
2023-05-01T22:22:48.360Z,12.20
2023-05-01T22:25:16.066Z,12.20
2023-05-01T22:27:42.987Z,12.10
2023-05-01T22:30:12.589Z,12.00
2023-05-01T22:32:39.664Z,11.90
2023-05-01T22:35:08.543Z,11.90
2023-05-01T22:37:35.467Z,11.90
2023-05-01T22:40:03.516Z,11.90
2023-05-01T22:42:33.054Z,11.90
2023-05-01T22:45:02.203Z,11.90
2023-05-01T22:47:29.166Z,11.90
2023-05-01T22:49:58.709Z,11.90
2023-05-01T22:52:28.011Z,11.90
2023-05-01T22:54:56.161Z,11.80
2023-05-01T22:57:23.086Z,11.70
2023-05-01T22:59:49.996Z,11.70
2023-05-01T23:02:19.145Z,11.60
2023-05-01T23:04:46.274Z,11.50
2023-05-01T23:07:16.177Z,11.50
2023-05-01T23:09:46.656Z,11.40
2023-05-01T23:12:25.969Z,11.30
2023-05-01T23:14:55.422Z,11.30
2023-05-01T23:17:22.493Z,11.30
2023-05-01T23:19:49.478Z,11.10
2023-05-01T23:22:16.440Z,11.10
2023-05-01T23:24:44.816Z,11.00
2023-05-01T23:27:14.332Z,10.90
2023-05-01T23:29:41.328Z,10.80
2023-05-01T23:32:25.105Z,10.80
2023-05-01T23:34:55.403Z,10.70
2023-05-01T23:37:22.458Z,10.60
2023-05-01T23:39:49.401Z,10.60
2023-05-01T23:42:20.490Z,10.50
2023-05-01T23:44:49.652Z,10.50
2023-05-01T23:47:19.299Z,10.50
2023-05-01T23:49:46.252Z,10.40
2023-05-01T23:52:15.791Z,10.30
2023-05-01T23:54:42.714Z,10.30
2023-05-01T23:57:10.321Z,10.30
2023-05-01T23:59:42.427Z,10.30
